createdAt,value
2018-09-26T00:01:08.735Z,5.40
2018-09-26T00:03:41.401Z,5.40
2018-09-26T00:06:09.077Z,5.40
2018-09-26T00:08:36.816Z,5.40
2018-09-26T00:11:04.414Z,5.40
2018-09-26T00:13:32.255Z,5.30
2018-09-26T00:15:59.977Z,5.30
2018-09-26T00:18:27.639Z,5.30
2018-09-26T00:20:55.265Z,5.30
2018-09-26T00:23:22.841Z,5.30
2018-09-26T00:25:50.849Z,5.30
2018-09-26T00:28:18.457Z,5.30
2018-09-26T00:30:47.027Z,5.30
2018-09-26T00:33:15.131Z,5.30
2018-09-26T00:35:42.773Z,5.30
2018-09-26T00:38:10.918Z,5.30
2018-09-26T00:40:38.599Z,5.30
2018-09-26T00:43:06.225Z,5.30
2018-09-26T00:45:33.901Z,5.30
2018-09-26T00:48:01.633Z,5.30
2018-09-26T00:50:29.276Z,5.20
2018-09-26T00:52:56.991Z,5.20
2018-09-26T00:55:24.662Z,5.20
2018-09-26T00:57:52.644Z,5.10
2018-09-26T01:00:20.275Z,5.00
2018-09-26T01:02:47.894Z,5.10
2018-09-26T01:05:15.538Z,5.00
2018-09-26T01:07:43.142Z,5.00
2018-09-26T01:10:11.345Z,4.90
2018-09-26T01:12:39.037Z,4.90
2018-09-26T01:15:06.730Z,4.90
2018-09-26T01:17:34.334Z,4.90
2018-09-26T01:20:02.014Z,4.80
2018-09-26T01:22:30.029Z,4.80
2018-09-26T01:24:57.693Z,4.80
2018-09-26T01:27:25.382Z,4.70
2018-09-26T01:29:52.960Z,4.70
2018-09-26T01:32:20.573Z,4.70
2018-09-26T01:34:48.198Z,4.70
2018-09-26T01:37:16.292Z,4.70
2018-09-26T01:39:43.944Z,4.70
2018-09-26T01:42:12.009Z,4.70
2018-09-26T01:44:39.652Z,4.70
2018-09-26T01:47:07.289Z,4.60
2018-09-26T01:49:34.994Z,4.50
2018-09-26T01:52:02.669Z,4.50
2018-09-26T01:54:30.332Z,4.50
2018-09-26T01:56:58.224Z,4.40
2018-09-26T01:59:26.221Z,4.40
2018-09-26T02:01:53.838Z,4.40
2018-09-26T02:04:21.461Z,4.40
2018-09-26T02:06:49.122Z,4.40
2018-09-26T02:09:16.731Z,4.40
2018-09-26T02:11:44.357Z,4.40
2018-09-26T02:14:12.299Z,4.50
2018-09-26T02:16:39.945Z,4.50
2018-09-26T02:19:07.565Z,4.40
2018-09-26T02:21:35.555Z,4.40
2018-09-26T02:24:03.209Z,4.40
2018-09-26T02:26:31.117Z,4.40
2018-09-26T02:28:58.780Z,4.40
2018-09-26T02:31:26.435Z,4.40
2018-09-26T02:33:54.067Z,4.40
2018-09-26T02:36:21.878Z,4.40
2018-09-26T02:38:49.644Z,4.40
2018-09-26T02:41:17.384Z,4.40
2018-09-26T02:43:45.451Z,4.40
2018-09-26T02:46:13.027Z,4.40
2018-09-26T02:48:46.591Z,4.40
2018-09-26T02:51:14.231Z,4.40
2018-09-26T02:53:41.951Z,4.40
2018-09-26T02:56:09.690Z,4.30
2018-09-26T02:58:37.346Z,4.20
2018-09-26T03:01:04.976Z,4.20
2018-09-26T03:03:32.631Z,4.20
2018-09-26T03:06:00.391Z,4.20
2018-09-26T03:08:28.043Z,4.20
2018-09-26T03:10:55.837Z,4.20
2018-09-26T03:13:23.412Z,4.10
2018-09-26T03:15:51.347Z,4.10
2018-09-26T03:18:18.981Z,4.00
2018-09-26T03:20:47.171Z,4.00
2018-09-26T03:23:14.745Z,3.90
2018-09-26T03:25:42.371Z,3.90
2018-09-26T03:28:10.124Z,3.90
2018-09-26T03:30:37.721Z,3.90
2018-09-26T03:33:05.516Z,3.80
2018-09-26T03:35:33.101Z,3.90
2018-09-26T03:38:00.690Z,4.00
2018-09-26T03:40:28.358Z,4.00
2018-09-26T03:42:56.045Z,4.00
2018-09-26T03:45:23.708Z,4.00
2018-09-26T03:47:51.797Z,4.00
2018-09-26T03:50:19.453Z,4.00
2018-09-26T03:52:47.425Z,3.90
2018-09-26T03:55:15.057Z,3.90
2018-09-26T03:57:42.673Z,3.90
2018-09-26T04:00:10.593Z,3.90
2018-09-26T04:02:38.391Z,3.90
2018-09-26T04:05:06.240Z,3.80
2018-09-26T04:07:33.881Z,3.80
2018-09-26T04:10:01.577Z,3.70
2018-09-26T04:12:29.783Z,3.70
2018-09-26T04:14:57.420Z,3.70
2018-09-26T04:17:25.173Z,3.60
2018-09-26T04:19:52.917Z,3.50
2018-09-26T04:22:20.509Z,3.60
2018-09-26T04:24:48.363Z,3.50
2018-09-26T04:27:16.063Z,3.40
2018-09-26T04:29:43.668Z,3.30
2018-09-26T04:32:11.353Z,3.30
2018-09-26T04:34:39.078Z,3.30
2018-09-26T04:37:06.716Z,3.20
2018-09-26T04:39:34.678Z,3.20
2018-09-26T04:42:02.393Z,3.20
2018-09-26T04:44:30.196Z,3.30
2018-09-26T04:46:57.918Z,3.30
2018-09-26T04:49:25.528Z,3.30
2018-09-26T04:51:53.220Z,3.30
2018-09-26T04:54:20.940Z,3.30
2018-09-26T04:56:48.650Z,3.30
2018-09-26T04:59:16.474Z,3.20
2018-09-26T05:01:44.089Z,3.20
2018-09-26T05:04:11.849Z,3.20
2018-09-26T05:06:39.461Z,3.20
2018-09-26T05:09:09.412Z,3.20
2018-09-26T05:11:37.132Z,3.30
2018-09-26T05:14:05.079Z,3.20
2018-09-26T05:16:32.862Z,3.20
2018-09-26T05:19:00.604Z,3.20
2018-09-26T05:21:28.788Z,3.20
2018-09-26T05:23:56.495Z,3.20
2018-09-26T05:26:24.270Z,3.30
2018-09-26T05:28:51.994Z,3.40
2018-09-26T05:31:19.606Z,3.60
2018-09-26T05:33:47.358Z,3.70
2018-09-26T05:36:15.002Z,3.90
2018-09-26T05:38:42.691Z,4.20
2018-09-26T05:41:10.584Z,4.50
2018-09-26T05:43:38.266Z,4.70
2018-09-26T05:46:05.931Z,5.00
2018-09-26T05:48:34.091Z,5.20
2018-09-26T05:51:01.868Z,5.40
2018-09-26T05:53:29.740Z,5.60
2018-09-26T05:55:57.403Z,5.80
2018-09-26T05:58:25.075Z,5.80
2018-09-26T06:00:53.449Z,5.80
2018-09-26T06:03:21.273Z,6.00
2018-09-26T06:05:49.415Z,6.10
2018-09-26T06:08:17.133Z,6.20
2018-09-26T06:10:44.898Z,6.10
2018-09-26T06:13:12.639Z,6.20
2018-09-26T06:15:41.888Z,6.00
2018-09-26T06:18:09.557Z,6.20
2018-09-26T06:20:37.329Z,6.50
2018-09-26T06:23:05.201Z,6.70
2018-09-26T06:25:32.873Z,6.80
2018-09-26T06:28:00.607Z,7.00
2018-09-26T06:30:28.248Z,7.10
2018-09-26T06:32:55.859Z,7.00
2018-09-26T06:35:23.535Z,7.30
2018-09-26T06:37:51.126Z,7.20
2018-09-26T06:40:18.725Z,7.20
2018-09-26T06:42:46.587Z,7.40
2018-09-26T06:45:15.250Z,7.70
2018-09-26T06:47:42.846Z,7.80
2018-09-26T06:50:16.502Z,7.80
2018-09-26T06:52:44.191Z,7.80
2018-09-26T06:55:11.777Z,7.90
2018-09-26T06:57:39.409Z,8.20
2018-09-26T07:00:07.761Z,8.40
2018-09-26T07:02:35.408Z,8.30
2018-09-26T07:05:03.079Z,8.50
2018-09-26T07:07:30.875Z,8.60
2018-09-26T07:09:58.511Z,8.70
2018-09-26T07:12:26.134Z,8.50
2018-09-26T07:14:53.773Z,8.50
2018-09-26T07:17:21.467Z,8.70
2018-09-26T07:19:49.217Z,8.80
2018-09-26T07:22:16.883Z,8.90
2018-09-26T07:24:44.521Z,8.80
2018-09-26T07:27:12.217Z,9.00
2018-09-26T07:29:39.953Z,9.00
2018-09-26T07:32:07.667Z,9.10
2018-09-26T07:34:38.154Z,9.40
2018-09-26T07:37:06.111Z,9.50
2018-09-26T07:39:34.315Z,9.70
2018-09-26T07:42:01.979Z,9.90
2018-09-26T07:44:29.773Z,9.90
2018-09-26T07:46:57.397Z,10.30
2018-09-26T07:49:25.619Z,10.40
2018-09-26T07:51:53.242Z,10.40
2018-09-26T07:54:20.897Z,10.90
2018-09-26T07:56:48.879Z,11.20
2018-09-26T07:59:16.609Z,11.20
2018-09-26T08:01:44.569Z,11.50
2018-09-26T08:04:12.322Z,11.40
2018-09-26T08:06:39.987Z,11.50
2018-09-26T08:09:08.585Z,11.60
2018-09-26T08:11:36.329Z,11.70
2018-09-26T08:14:04.335Z,11.90
2018-09-26T08:16:42.294Z,12.20
2018-09-26T08:19:10.056Z,12.40
2018-09-26T08:21:37.601Z,12.60
2018-09-26T08:24:05.307Z,12.50
2018-09-26T08:26:32.858Z,12.90
2018-09-26T08:29:00.459Z,12.90
2018-09-26T08:31:28.527Z,12.80
2018-09-26T08:33:56.194Z,12.80
2018-09-26T08:36:23.792Z,12.70
2018-09-26T08:38:51.429Z,12.90
2018-09-26T08:41:19.080Z,13.00
2018-09-26T08:43:46.763Z,13.00
2018-09-26T08:46:14.427Z,13.10
2018-09-26T08:48:42.055Z,13.10
2018-09-26T08:51:09.633Z,13.10
2018-09-26T08:53:37.293Z,13.20
2018-09-26T08:56:04.820Z,13.30
2018-09-26T08:58:32.374Z,13.50
2018-09-26T09:00:59.946Z,13.70
2018-09-26T09:03:27.498Z,13.80
2018-09-26T09:05:55.055Z,14.10
2018-09-26T09:08:22.704Z,14.20
2018-09-26T09:10:50.266Z,14.20
2018-09-26T09:13:17.854Z,14.30
2018-09-26T09:15:45.457Z,14.20
2018-09-26T09:18:13.038Z,14.10
2018-09-26T09:20:40.592Z,14.10
2018-09-26T09:23:08.244Z,14.20
2018-09-26T09:25:35.793Z,14.40
2018-09-26T09:28:03.618Z,14.30
2018-09-26T09:30:31.244Z,14.10
2018-09-26T09:32:58.841Z,14.10
2018-09-26T09:35:26.626Z,14.10
2018-09-26T09:37:54.236Z,14.20
2018-09-26T09:40:21.857Z,14.30
2018-09-26T09:42:49.434Z,14.50
2018-09-26T09:45:17.163Z,14.30
2018-09-26T09:47:44.792Z,14.50
2018-09-26T09:50:12.469Z,14.70
2018-09-26T09:52:40.057Z,14.80
2018-09-26T09:55:07.728Z,14.80
2018-09-26T09:57:35.397Z,14.70
2018-09-26T10:00:03.182Z,14.60
2018-09-26T10:02:30.829Z,14.70
2018-09-26T10:04:58.425Z,14.80
2018-09-26T10:07:26.137Z,14.80
2018-09-26T10:09:53.745Z,14.90
2018-09-26T10:12:21.369Z,15.00
2018-09-26T10:14:49.064Z,15.00
2018-09-26T10:17:16.668Z,14.90
2018-09-26T10:19:44.349Z,14.90
2018-09-26T10:22:12.006Z,14.90
2018-09-26T10:24:39.778Z,15.10
2018-09-26T10:27:07.450Z,15.10
2018-09-26T10:29:35.147Z,15.20
2018-09-26T10:32:02.849Z,15.10
2018-09-26T10:34:30.680Z,15.20
2018-09-26T10:36:58.356Z,15.20
2018-09-26T10:39:26.002Z,15.40
2018-09-26T10:41:53.622Z,15.70
2018-09-26T10:44:21.340Z,15.80
2018-09-26T10:46:48.928Z,16.10
2018-09-26T10:49:16.530Z,16.10
2018-09-26T10:51:44.178Z,15.80
2018-09-26T10:54:11.756Z,15.90
2018-09-26T10:56:39.443Z,16.10
2018-09-26T10:59:07.156Z,16.30
2018-09-26T11:01:34.816Z,16.10
2018-09-26T11:04:02.496Z,15.80
2018-09-26T11:06:30.139Z,16.00
2018-09-26T11:08:57.717Z,16.20
2018-09-26T11:11:25.452Z,16.20
2018-09-26T11:13:53.107Z,16.40
2018-09-26T11:16:20.744Z,16.70
2018-09-26T11:18:48.460Z,17.10
2018-09-26T11:21:16.145Z,17.60
2018-09-26T11:23:43.687Z,18.10
2018-09-26T11:26:11.437Z,19.60
2018-09-26T11:28:39.041Z,20.50
2018-09-26T11:31:06.708Z,21.70
2018-09-26T11:33:34.379Z,22.50
2018-09-26T11:36:02.003Z,20.90
2018-09-26T11:38:29.668Z,21.70
2018-09-26T11:40:57.311Z,21.80
2018-09-26T11:43:24.931Z,24.30
2018-09-26T11:45:52.572Z,25.40
2018-09-26T11:48:20.170Z,25.00
2018-09-26T11:50:47.794Z,25.00
2018-09-26T11:53:15.384Z,24.60
2018-09-26T11:55:43.126Z,23.30
2018-09-26T11:58:10.802Z,21.80
2018-09-26T12:00:38.494Z,22.60
2018-09-26T12:03:06.637Z,23.80
2018-09-26T12:05:34.330Z,24.50
2018-09-26T12:08:02.077Z,25.30
2018-09-26T12:10:29.772Z,23.90
2018-09-26T12:13:04.215Z,25.00
2018-09-26T12:15:32.049Z,24.10
2018-09-26T12:17:59.769Z,24.80
2018-09-26T12:20:28.991Z,25.70
2018-09-26T12:22:57.979Z,27.40
2018-09-26T12:25:25.688Z,27.90
2018-09-26T12:27:53.398Z,28.00
2018-09-26T12:30:21.048Z,25.60
2018-09-26T12:32:48.643Z,23.30
2018-09-26T12:35:16.250Z,23.60
2018-09-26T12:37:43.894Z,23.30
2018-09-26T12:40:11.567Z,23.60
2018-09-26T12:42:39.323Z,23.60
2018-09-26T12:45:07.232Z,22.90
2018-09-26T12:47:34.832Z,21.20
2018-09-26T12:50:02.671Z,21.70
2018-09-26T12:52:30.352Z,22.50
2018-09-26T12:54:58.110Z,23.40
2018-09-26T12:57:25.806Z,24.00
2018-09-26T12:59:53.466Z,26.00
2018-09-26T13:02:21.269Z,26.60
2018-09-26T13:04:48.898Z,28.00
2018-09-26T13:07:16.660Z,28.30
2018-09-26T13:09:44.420Z,30.70
2018-09-26T13:12:12.239Z,28.70
2018-09-26T13:14:39.849Z,25.10
2018-09-26T13:17:07.545Z,25.60
2018-09-26T13:19:35.210Z,24.20
2018-09-26T13:22:03.121Z,25.10
2018-09-26T13:24:30.790Z,26.80
2018-09-26T13:26:58.531Z,27.50
2018-09-26T13:29:26.211Z,26.80
2018-09-26T13:31:53.909Z,24.70
2018-09-26T13:34:21.581Z,26.10
2018-09-26T13:36:49.164Z,26.30
2018-09-26T13:39:16.792Z,27.30
2018-09-26T13:41:44.405Z,28.20
2018-09-26T13:44:12.020Z,28.40
2018-09-26T13:46:39.888Z,28.90
2018-09-26T13:49:07.453Z,28.20
2018-09-26T13:51:35.017Z,27.80
2018-09-26T13:54:02.682Z,26.60
2018-09-26T13:56:30.343Z,26.30
2018-09-26T13:58:57.997Z,25.30
2018-09-26T14:01:25.800Z,24.10
2018-09-26T14:03:53.589Z,24.10
2018-09-26T14:06:21.387Z,23.70
2018-09-26T14:08:49.049Z,23.50
2018-09-26T14:11:16.718Z,23.60
2018-09-26T14:13:44.408Z,23.40
2018-09-26T14:16:12.138Z,22.60
2018-09-26T14:18:39.844Z,22.50
2018-09-26T14:21:07.531Z,23.40
2018-09-26T14:23:35.228Z,23.30
2018-09-26T14:26:02.868Z,23.30
2018-09-26T14:28:30.551Z,22.50
2018-09-26T14:30:58.191Z,22.40
2018-09-26T14:33:25.887Z,22.20
2018-09-26T14:35:53.634Z,22.30
2018-09-26T14:38:21.476Z,21.90
2018-09-26T14:40:49.148Z,22.00
2018-09-26T14:43:16.845Z,21.60
2018-09-26T14:45:44.700Z,21.30
2018-09-26T14:48:12.253Z,21.10
2018-09-26T14:50:39.974Z,20.90
2018-09-26T14:53:07.742Z,20.70
2018-09-26T14:55:35.605Z,20.50
2018-09-26T14:58:03.344Z,20.90
2018-09-26T15:00:31.213Z,20.50
2018-09-26T15:02:58.929Z,20.20
2018-09-26T15:05:26.732Z,20.30
2018-09-26T15:07:54.408Z,20.30
2018-09-26T15:10:22.192Z,20.50
2018-09-26T15:12:49.911Z,20.10
2018-09-26T15:15:17.648Z,20.30
2018-09-26T15:17:45.351Z,20.60
2018-09-26T15:20:13.090Z,20.50
2018-09-26T15:22:40.804Z,21.20
2018-09-26T15:25:08.510Z,21.00
2018-09-26T15:27:36.229Z,20.80
2018-09-26T15:30:04.164Z,20.50
2018-09-26T15:32:31.877Z,20.40
2018-09-26T15:34:59.667Z,20.40
2018-09-26T15:37:27.483Z,20.30
2018-09-26T15:39:55.268Z,20.50
2018-09-26T15:42:23.017Z,20.50
2018-09-26T15:44:50.776Z,20.30
2018-09-26T15:47:18.531Z,19.70
2018-09-26T15:49:46.177Z,19.60
2018-09-26T15:52:14.045Z,19.20
2018-09-26T15:54:42.961Z,18.90
2018-09-26T15:57:10.847Z,18.80
2018-09-26T15:59:38.581Z,18.70
2018-09-26T16:02:06.374Z,18.70
2018-09-26T16:04:34.359Z,18.30
2018-09-26T16:07:02.354Z,18.20
2018-09-26T16:09:30.143Z,18.10
2018-09-26T16:11:57.814Z,18.10
2018-09-26T16:14:25.586Z,17.90
2018-09-26T16:16:53.276Z,17.70
2018-09-26T16:19:24.304Z,17.60
2018-09-26T16:21:52.036Z,17.40
2018-09-26T16:24:19.999Z,17.30
2018-09-26T16:26:48.100Z,16.90
2018-09-26T16:29:16.142Z,16.70
2018-09-26T16:31:44.038Z,16.60
2018-09-26T16:34:11.942Z,16.40
2018-09-26T16:36:39.684Z,16.20
2018-09-26T16:39:11.058Z,16.10
2018-09-26T16:41:38.976Z,16.00
2018-09-26T16:44:07.984Z,16.00
2018-09-26T16:46:36.043Z,15.80
2018-09-26T16:49:03.983Z,15.70
2018-09-26T16:51:32.212Z,15.50
2018-09-26T16:54:00.335Z,15.30
2018-09-26T16:56:28.389Z,15.20
2018-09-26T16:58:56.383Z,15.10
2018-09-26T17:01:24.439Z,15.00
2018-09-26T17:03:52.347Z,14.80
2018-09-26T17:06:20.345Z,14.70
2018-09-26T17:08:48.002Z,14.60
2018-09-26T17:11:26.086Z,14.50
2018-09-26T17:13:53.818Z,14.40
2018-09-26T17:16:21.651Z,14.30
2018-09-26T17:18:49.241Z,14.20
2018-09-26T17:21:17.087Z,14.10
2018-09-26T17:23:44.792Z,14.00
2018-09-26T17:26:12.574Z,13.90
2018-09-26T17:28:40.353Z,13.80
2018-09-26T17:31:08.171Z,13.80
2018-09-26T17:33:36.209Z,13.70
2018-09-26T17:36:04.083Z,13.60
2018-09-26T17:38:31.868Z,13.60
2018-09-26T17:40:59.679Z,13.60
2018-09-26T17:43:27.615Z,13.60
2018-09-26T17:45:55.525Z,13.60
2018-09-26T17:48:23.528Z,13.60
2018-09-26T17:50:51.173Z,13.50
2018-09-26T17:53:19.185Z,13.50
2018-09-26T17:55:47.093Z,13.30
2018-09-26T17:58:14.776Z,13.30
2018-09-26T18:00:42.609Z,13.20
2018-09-26T18:03:10.414Z,13.10
2018-09-26T18:05:38.103Z,13.00
2018-09-26T18:08:05.837Z,12.90
2018-09-26T18:10:36.967Z,12.80
2018-09-26T18:13:04.926Z,12.70
2018-09-26T18:15:32.795Z,12.60
2018-09-26T18:18:00.697Z,12.60
2018-09-26T18:20:28.549Z,12.50
2018-09-26T18:22:56.915Z,12.40
2018-09-26T18:25:24.778Z,12.30
2018-09-26T18:27:52.804Z,12.20
2018-09-26T18:30:21.247Z,12.20
2018-09-26T18:32:49.216Z,12.10
2018-09-26T18:35:17.237Z,12.10
2018-09-26T18:37:45.382Z,12.00
2018-09-26T18:40:14.700Z,11.90
2018-09-26T18:42:42.793Z,11.90
2018-09-26T18:45:10.873Z,11.90
2018-09-26T18:47:38.790Z,11.90
2018-09-26T18:50:06.806Z,11.80
2018-09-26T18:52:36.766Z,11.80
2018-09-26T18:55:05.088Z,11.80
2018-09-26T18:57:33.146Z,11.80
2018-09-26T19:00:01.100Z,11.70
2018-09-26T19:02:29.458Z,11.70
2018-09-26T19:05:03.417Z,11.60
2018-09-26T19:07:31.199Z,11.60
2018-09-26T19:12:33.616Z,11.60
2018-09-26T19:15:01.707Z,11.60
2018-09-26T19:17:29.512Z,11.50
2018-09-26T19:19:57.284Z,11.50
2018-09-26T19:22:25.184Z,11.60
2018-09-26T19:24:53.143Z,11.70
2018-09-26T19:27:21.064Z,11.60
2018-09-26T19:29:54.786Z,11.60
2018-09-26T19:32:23.203Z,11.70
2018-09-26T19:34:51.373Z,11.90
2018-09-26T19:37:19.162Z,12.00
2018-09-26T19:39:47.123Z,12.00
2018-09-26T19:42:23.254Z,11.90
2018-09-26T19:44:51.213Z,11.80
2018-09-26T19:47:18.959Z,11.80
2018-09-26T19:49:46.950Z,11.70
2018-09-26T19:52:14.933Z,11.70
2018-09-26T19:54:42.726Z,11.70
2018-09-26T19:57:10.648Z,11.80
2018-09-26T19:59:42.623Z,11.70
2018-09-26T20:02:10.573Z,11.50
2018-09-26T20:04:38.349Z,11.50
2018-09-26T20:07:06.280Z,11.30
2018-09-26T20:09:37.235Z,11.20
2018-09-26T20:12:05.107Z,11.20
2018-09-26T20:14:32.984Z,11.30
2018-09-26T20:17:00.787Z,11.30
2018-09-26T20:19:28.542Z,11.20
2018-09-26T20:21:56.322Z,11.20
2018-09-26T20:24:24.066Z,11.10
2018-09-26T20:26:51.866Z,11.10
2018-09-26T20:29:19.590Z,11.00
2018-09-26T20:31:47.216Z,10.90
2018-09-26T20:36:49.333Z,10.80
2018-09-26T20:39:17.114Z,10.70
2018-09-26T20:41:44.937Z,10.70
2018-09-26T20:44:12.658Z,10.60
2018-09-26T20:46:40.394Z,10.60
2018-09-26T20:49:08.013Z,10.60
2018-09-26T20:51:35.760Z,10.60
2018-09-26T20:54:03.506Z,10.60
2018-09-26T20:56:31.313Z,10.60
2018-09-26T20:58:59.002Z,10.70
2018-09-26T21:01:26.738Z,10.80
2018-09-26T21:03:54.469Z,10.90
2018-09-26T21:06:22.176Z,11.00
2018-09-26T21:08:49.966Z,11.10
2018-09-26T21:11:17.616Z,11.30
2018-09-26T21:13:45.323Z,11.30
2018-09-26T21:16:13.095Z,11.40
2018-09-26T21:18:40.896Z,11.50
2018-09-26T21:21:08.712Z,11.60
2018-09-26T21:23:36.396Z,11.60
2018-09-26T21:26:04.206Z,11.60
2018-09-26T21:28:32.252Z,11.70
2018-09-26T21:30:59.898Z,12.00
2018-09-26T21:33:27.606Z,12.00
2018-09-26T21:35:55.380Z,12.10
2018-09-26T21:38:23.065Z,12.10
2018-09-26T21:40:50.914Z,12.10
2018-09-26T21:43:18.666Z,12.30
2018-09-26T21:45:46.397Z,12.40
2018-09-26T21:48:14.094Z,12.50
2018-09-26T21:50:42.633Z,12.60
2018-09-26T21:53:10.401Z,12.50
2018-09-26T21:55:38.129Z,12.50
2018-09-26T21:58:05.785Z,12.60
2018-09-26T22:00:33.434Z,12.60
2018-09-26T22:03:01.054Z,12.70
2018-09-26T22:05:28.698Z,12.70
2018-09-26T22:07:56.544Z,12.70
2018-09-26T22:10:24.242Z,12.80
2018-09-26T22:12:52.479Z,13.10
2018-09-26T22:15:23.434Z,13.30
2018-09-26T22:17:52.899Z,13.60
2018-09-26T22:20:20.617Z,14.00
2018-09-26T22:22:48.910Z,14.20
2018-09-26T22:25:16.687Z,14.30
2018-09-26T22:27:44.706Z,14.60
2018-09-26T22:30:12.563Z,14.70
2018-09-26T22:32:40.239Z,14.70
2018-09-26T22:35:07.899Z,14.80
2018-09-26T22:37:35.946Z,14.90
2018-09-26T22:40:03.582Z,15.00
2018-09-26T22:42:31.753Z,15.00
2018-09-26T22:44:59.535Z,15.10
2018-09-26T22:47:27.200Z,15.10
2018-09-26T22:49:55.174Z,15.10
2018-09-26T22:52:22.970Z,15.10
2018-09-26T22:54:50.828Z,15.20
2018-09-26T22:57:18.424Z,15.20
2018-09-26T22:59:46.134Z,15.20
2018-09-26T23:02:13.780Z,15.30
2018-09-26T23:04:41.525Z,15.30
2018-09-26T23:07:09.245Z,15.30
2018-09-26T23:09:36.916Z,15.30
2018-09-26T23:12:04.790Z,15.30
2018-09-26T23:14:32.510Z,15.30
2018-09-26T23:17:00.280Z,15.30
2018-09-26T23:19:27.960Z,15.20
2018-09-26T23:21:55.678Z,15.20
2018-09-26T23:24:23.301Z,15.20
2018-09-26T23:26:51.058Z,15.20
2018-09-26T23:29:18.754Z,15.10
2018-09-26T23:31:46.501Z,15.20
2018-09-26T23:34:14.267Z,15.20
2018-09-26T23:36:41.905Z,15.10
2018-09-26T23:39:10.553Z,15.00
2018-09-26T23:41:38.661Z,15.00
2018-09-26T23:44:06.830Z,14.90
2018-09-26T23:46:34.519Z,14.80
2018-09-26T23:49:02.148Z,14.80
2018-09-26T23:51:29.982Z,14.80
2018-09-26T23:53:58.218Z,14.70
2018-09-26T23:56:25.944Z,14.70
2018-09-26T23:58:53.544Z,14.70
